createdAt,value
2018-09-15T00:02:21.491Z,54.21
2018-09-15T00:07:24.922Z,54.37
2018-09-15T00:12:28.373Z,54.70
2018-09-15T00:17:31.836Z,54.80
2018-09-15T00:22:35.292Z,54.71
2018-09-15T00:27:38.742Z,55.18
2018-09-15T00:32:42.216Z,55.20
2018-09-15T00:37:45.724Z,54.92
2018-09-15T00:42:49.139Z,55.44
2018-09-15T00:47:52.597Z,55.65
2018-09-15T00:52:56.056Z,55.55
2018-09-15T00:57:59.504Z,55.81
2018-09-15T01:03:02.952Z,55.57
2018-09-15T01:08:06.460Z,55.36
2018-09-15T01:13:09.880Z,55.37
2018-09-15T01:18:13.322Z,55.59
2018-09-15T01:23:16.770Z,55.48
2018-09-15T01:28:20.219Z,55.54
2018-09-15T01:33:23.674Z,56.07
2018-09-15T01:38:27.110Z,55.67
2018-09-15T01:43:30.551Z,56.02
2018-09-15T01:48:33.986Z,55.99
2018-09-15T01:53:37.432Z,55.90
2018-09-15T01:58:40.874Z,55.43
2018-09-15T02:03:44.674Z,56.02
2018-09-15T02:08:48.115Z,55.55
2018-09-15T02:13:51.551Z,55.33
2018-09-15T02:18:55.003Z,55.50
2018-09-15T02:23:58.451Z,54.72
2018-09-15T02:29:01.902Z,55.09
2018-09-15T02:34:05.359Z,55.13
2018-09-15T02:39:09.563Z,55.14
2018-09-15T02:44:12.992Z,55.07
2018-09-15T02:49:16.438Z,55.72
2018-09-15T02:54:19.886Z,55.33
2018-09-15T02:59:23.347Z,55.74
2018-09-15T03:04:26.775Z,55.33
2018-09-15T03:09:30.228Z,55.62
2018-09-15T03:14:33.689Z,55.23
2018-09-15T03:19:37.132Z,55.50
2018-09-15T03:24:40.976Z,55.87
2018-09-15T03:29:44.402Z,55.15
2018-09-15T03:34:47.831Z,55.61
2018-09-15T03:39:51.280Z,55.31
2018-09-15T03:44:54.740Z,55.64
2018-09-15T03:49:58.174Z,55.93
2018-09-15T03:55:01.624Z,55.93
2018-09-15T04:00:05.394Z,55.55
2018-09-15T04:05:08.835Z,55.92
2018-09-15T04:10:12.290Z,55.65
2018-09-15T04:15:15.838Z,55.68
2018-09-15T04:20:19.262Z,55.03
2018-09-15T04:25:22.684Z,55.19
2018-09-15T04:30:26.104Z,55.43
2018-09-15T04:35:29.563Z,55.61
2018-09-15T04:40:32.995Z,55.35
2018-09-15T04:45:36.422Z,55.76
2018-09-15T04:50:39.856Z,55.62
2018-09-15T04:55:43.277Z,56.03
2018-09-15T05:00:47.506Z,55.58
2018-09-15T05:05:51.023Z,56.29
2018-09-15T05:10:54.555Z,56.31
2018-09-15T05:15:58.027Z,56.05
2018-09-15T05:21:01.474Z,55.72
2018-09-15T05:26:04.967Z,56.26
2018-09-15T05:31:08.406Z,56.27
2018-09-15T05:36:11.927Z,56.00
2018-09-15T05:41:15.407Z,56.36
2018-09-15T05:46:18.835Z,56.52
2018-09-15T05:51:22.309Z,56.57
2018-09-15T05:56:25.732Z,56.08
2018-09-15T06:01:29.281Z,56.67
2018-09-15T06:06:32.685Z,56.38
2018-09-15T06:11:36.247Z,56.24
2018-09-15T06:16:39.698Z,56.42
2018-09-15T06:21:43.295Z,56.48
2018-09-15T06:26:46.766Z,56.26
2018-09-15T06:31:50.203Z,56.25
2018-09-15T06:36:53.679Z,56.23
2018-09-15T06:41:57.102Z,56.22
2018-09-15T06:47:00.530Z,56.83
2018-09-15T06:52:03.977Z,56.71
2018-09-15T06:57:07.591Z,56.38
2018-09-15T07:02:11.034Z,56.61
2018-09-15T07:07:14.631Z,52.47
2018-09-15T07:12:18.432Z,53.18
2018-09-15T07:17:21.915Z,53.14
2018-09-15T07:22:25.394Z,54.31
2018-09-15T07:27:28.875Z,56.74
2018-09-15T07:32:32.348Z,58.04
2018-09-15T07:37:35.851Z,59.63
2018-09-15T07:42:39.293Z,58.58
2018-09-15T07:47:42.754Z,58.05
2018-09-15T07:52:46.211Z,57.22
2018-09-15T07:57:49.760Z,57.10
2018-09-15T08:02:53.284Z,56.98
2018-09-15T08:07:57.250Z,55.61
2018-09-15T08:13:01.089Z,55.59
2018-09-15T08:18:04.652Z,54.88
2018-09-15T08:23:08.128Z,54.73
2018-09-15T08:28:11.754Z,53.94
2018-09-15T08:33:15.207Z,54.35
2018-09-15T08:38:18.671Z,53.30
2018-09-15T08:43:22.327Z,53.65
2018-09-15T08:48:25.944Z,53.14
2018-09-15T08:53:29.578Z,49.20
2018-09-15T08:58:33.096Z,49.03
2018-09-15T09:03:36.565Z,48.77
2018-09-15T09:08:40.004Z,48.95
2018-09-15T09:13:43.447Z,48.63
2018-09-15T09:18:47.195Z,48.31
2018-09-15T09:23:50.680Z,48.26
2018-09-15T09:28:54.226Z,48.45
2018-09-15T09:33:57.671Z,47.98
2018-09-15T09:39:01.142Z,47.56
2018-09-15T09:44:04.595Z,50.25
2018-09-15T09:49:08.083Z,49.59
2018-09-15T09:54:11.550Z,50.58
2018-09-15T09:59:15.031Z,49.96
2018-09-15T10:04:18.492Z,50.03
2018-09-15T10:09:21.940Z,48.65
2018-09-15T10:14:25.425Z,49.45
2018-09-15T10:19:28.889Z,50.14
2018-09-15T10:24:32.351Z,48.92
2018-09-15T10:29:35.798Z,48.38
2018-09-15T10:34:39.268Z,49.53
2018-09-15T10:39:42.739Z,48.15
2018-09-15T10:44:46.211Z,48.62
2018-09-15T10:49:49.667Z,48.41
2018-09-15T10:54:53.142Z,47.96
2018-09-15T10:59:56.784Z,48.27
2018-09-15T11:05:00.234Z,47.98
2018-09-15T11:10:03.764Z,48.04
2018-09-15T11:15:07.784Z,47.83
2018-09-15T11:20:11.247Z,47.34
2018-09-15T11:25:15.185Z,46.74
2018-09-15T11:30:18.729Z,46.75
2018-09-15T11:35:22.208Z,47.57
2018-09-15T11:40:25.737Z,47.61
2018-09-15T11:45:29.208Z,47.08
2018-09-15T11:50:32.692Z,47.51
2018-09-15T11:55:36.187Z,45.68
2018-09-15T12:00:42.719Z,46.96
2018-09-15T12:05:46.189Z,46.03
2018-09-15T12:10:49.744Z,44.48
2018-09-15T12:15:53.204Z,44.14
2018-09-15T12:20:56.661Z,43.27
2018-09-15T12:26:00.178Z,43.08
2018-09-15T12:31:03.810Z,44.32
2018-09-15T12:36:07.266Z,44.36
2018-09-15T12:41:10.743Z,44.71
2018-09-15T12:46:14.240Z,45.36
2018-09-15T12:51:17.709Z,45.09
2018-09-15T12:56:21.192Z,44.36
2018-09-15T13:01:24.658Z,45.29
2018-09-15T13:06:28.206Z,44.94
2018-09-15T13:11:31.628Z,44.39
2018-09-15T13:16:35.385Z,44.28
2018-09-15T13:21:38.870Z,45.29
2018-09-15T13:26:42.329Z,46.28
2018-09-15T13:31:45.767Z,45.99
2018-09-15T13:36:49.226Z,45.67
2018-09-15T13:41:52.695Z,45.72
2018-09-15T13:46:56.175Z,45.52
2018-09-15T13:51:59.635Z,45.12
2018-09-15T13:57:03.318Z,45.18
2018-09-15T14:02:06.795Z,44.77
2018-09-15T14:07:10.246Z,45.11
2018-09-15T14:12:13.778Z,44.58
2018-09-15T14:17:17.249Z,45.39
2018-09-15T14:22:21.685Z,45.04
2018-09-15T14:27:25.313Z,44.85
2018-09-15T14:32:29.239Z,45.52
2018-09-15T14:37:33.540Z,47.21
2018-09-15T14:42:37.882Z,46.39
2018-09-15T14:47:41.379Z,47.42
2018-09-15T14:52:44.838Z,46.94
2018-09-15T14:57:48.331Z,46.54
2018-09-15T15:02:55.415Z,46.83
2018-09-15T15:07:58.939Z,45.97
2018-09-15T15:13:02.378Z,47.26
2018-09-15T15:18:05.844Z,46.96
2018-09-15T15:23:09.299Z,47.96
2018-09-15T15:28:12.749Z,46.91
2018-09-15T15:33:16.210Z,47.04
2018-09-15T15:38:19.808Z,46.60
2018-09-15T15:43:23.343Z,47.30
2018-09-15T15:48:26.832Z,47.20
2018-09-15T15:53:30.493Z,45.57
2018-09-15T15:58:34.167Z,44.69
2018-09-15T16:03:37.694Z,43.88
2018-09-15T16:08:41.175Z,42.23
2018-09-15T16:13:44.981Z,42.89
2018-09-15T16:18:48.599Z,42.19
2018-09-15T16:23:52.306Z,42.48
2018-09-15T16:28:55.902Z,42.38
2018-09-15T16:34:00.362Z,42.57
2018-09-15T16:39:05.466Z,42.13
2018-09-15T16:44:09.122Z,43.12
2018-09-15T16:49:12.768Z,44.54
2018-09-15T16:54:16.303Z,45.26
2018-09-15T16:59:20.246Z,46.03
2018-09-15T17:04:23.744Z,45.72
2018-09-15T17:09:27.288Z,46.64
2018-09-15T17:14:30.765Z,46.71
2018-09-15T17:19:34.679Z,46.52
2018-09-15T17:24:38.667Z,46.91
2018-09-15T17:29:42.156Z,47.30
2018-09-15T17:34:45.639Z,47.46
2018-09-15T17:39:49.129Z,47.33
2018-09-15T17:44:52.550Z,47.51
2018-09-15T17:49:56.015Z,47.74
2018-09-15T17:55:00.791Z,47.81
2018-09-15T18:00:06.464Z,47.86
2018-09-15T18:05:10.012Z,48.64
2018-09-15T18:10:13.554Z,48.64
2018-09-15T18:15:16.998Z,48.89
2018-09-15T18:20:20.421Z,48.38
2018-09-15T18:25:23.844Z,48.53
2018-09-15T18:30:27.375Z,48.27
2018-09-15T18:35:30.874Z,48.28
2018-09-15T18:40:34.315Z,48.23
2018-09-15T18:45:37.809Z,48.09
2018-09-15T18:50:41.258Z,48.11
2018-09-15T18:55:44.719Z,48.33
2018-09-15T19:00:48.269Z,47.89
2018-09-15T19:05:51.777Z,47.83
2018-09-15T19:10:55.220Z,47.83
2018-09-15T19:15:58.833Z,47.97
2018-09-15T19:21:02.410Z,47.22
2018-09-15T19:26:05.925Z,47.30
2018-09-15T19:31:09.507Z,47.46
2018-09-15T19:36:13.031Z,47.95
2018-09-15T19:41:16.618Z,47.17
2018-09-15T19:46:20.076Z,47.42
2018-09-15T19:51:23.696Z,47.75
2018-09-15T19:56:27.419Z,47.77
2018-09-15T20:01:31.110Z,48.02
2018-09-15T20:06:34.610Z,47.88
2018-09-15T20:11:38.201Z,47.68
2018-09-15T20:16:40.575Z,48.07
2018-09-15T20:21:42.917Z,47.93
2018-09-15T20:26:46.393Z,47.44
2018-09-15T20:31:49.880Z,46.87
2018-09-15T20:36:53.383Z,46.83
2018-09-15T20:41:56.840Z,47.61
2018-09-15T20:47:00.458Z,47.53
2018-09-15T20:52:03.991Z,47.42
2018-09-15T20:57:08.131Z,47.24
2018-09-15T21:02:11.584Z,47.88
2018-09-15T21:07:15.035Z,47.63
2018-09-15T21:12:18.487Z,47.85
2018-09-15T21:17:21.979Z,47.30
2018-09-15T21:22:25.410Z,47.44
2018-09-15T21:27:28.853Z,47.97
2018-09-15T21:32:32.294Z,47.72
2018-09-15T21:37:35.759Z,48.03
2018-09-15T21:42:39.247Z,46.61
2018-09-15T21:47:42.692Z,46.79
2018-09-15T21:52:46.248Z,47.42
2018-09-15T21:57:49.738Z,47.22
2018-09-15T22:02:53.242Z,46.99
2018-09-15T22:07:56.796Z,46.89
2018-09-15T22:13:00.315Z,46.74
2018-09-15T22:18:03.847Z,46.54
2018-09-15T22:23:07.462Z,46.43
2018-09-15T22:28:11.002Z,46.59
2018-09-15T22:33:14.503Z,46.71
2018-09-15T22:38:18.036Z,46.80
2018-09-15T22:43:21.495Z,46.34
2018-09-15T22:48:24.975Z,46.54
2018-09-15T22:53:28.543Z,47.06
2018-09-15T22:58:32.075Z,46.91
2018-09-15T23:03:35.515Z,46.67
2018-09-15T23:08:39.015Z,46.65
2018-09-15T23:13:42.451Z,47.61
2018-09-15T23:18:45.897Z,47.77
2018-09-15T23:23:49.342Z,46.79
2018-09-15T23:28:52.790Z,46.65
2018-09-15T23:33:56.240Z,46.92
2018-09-15T23:38:59.673Z,46.44
2018-09-15T23:44:03.115Z,46.51
2018-09-15T23:49:06.590Z,46.81
2018-09-15T23:54:10.033Z,46.65
2018-09-15T23:59:13.483Z,46.45
